sensor_id;sensor_type;location;lat;lon;timestamp;P1;durP1;ratioP1;P2;durP2;ratioP2
51515;SDS011;37603;55.614;37.326;2023-08-21T00:01:32;1.4;;;1.2;;
51515;SDS011;37603;55.614;37.326;2023-08-21T00:07:32;1.6;;;1.4;;
51515;SDS011;37603;55.614;37.326;2023-08-21T00:13:31;3.6;;;1.7;;
51515;SDS011;37603;55.614;37.326;2023-08-21T00:19:31;3.0;;;1.8;;
51515;SDS011;37603;55.614;37.326;2023-08-21T00:31:30;3.3;;;1.6;;
51515;SDS011;37603;55.614;37.326;2023-08-21T00:37:30;4.3;;;1.8;;
51515;SDS011;37603;55.614;37.326;2023-08-21T00:43:29;3.3;;;2.2;;
51515;SDS011;37603;55.614;37.326;2023-08-21T00:49:29;4.1;;;2.9;;
51515;SDS011;37603;55.614;37.326;2023-08-21T00:55:30;4.6;;;3.3;;
51515;SDS011;37603;55.614;37.326;2023-08-21T01:07:28;8.8;;;4.4;;
51515;SDS011;37603;55.614;37.326;2023-08-21T01:13:32;6.0;;;4.5;;
51515;SDS011;37603;55.614;37.326;2023-08-21T01:19:30;7.0;;;4.9;;
51515;SDS011;37603;55.614;37.326;2023-08-21T01:25:26;6.7;;;5.3;;
51515;SDS011;37603;55.614;37.326;2023-08-21T01:31:26;7.0;;;5.8;;
51515;SDS011;37603;55.614;37.326;2023-08-21T01:37:26;7.8;;;5.7;;
51515;SDS011;37603;55.614;37.326;2023-08-21T01:43:25;8.7;;;5.8;;
51515;SDS011;37603;55.614;37.326;2023-08-21T01:49:25;6.9;;;6.2;;
51515;SDS011;37603;55.614;37.326;2023-08-21T01:55:24;7.1;;;6.4;;
51515;SDS011;37603;55.614;37.326;2023-08-21T02:01:24;8.1;;;7.0;;
51515;SDS011;37603;55.614;37.326;2023-08-21T02:07:23;7.7;;;6.7;;
51515;SDS011;37603;55.614;37.326;2023-08-21T02:13:23;7.3;;;6.6;;
51515;SDS011;37603;55.614;37.326;2023-08-21T02:19:22;7.7;;;6.9;;
51515;SDS011;37603;55.614;37.326;2023-08-21T02:25:22;7.8;;;7.0;;
51515;SDS011;37603;55.614;37.326;2023-08-21T02:31:21;8.4;;;7.4;;
51515;SDS011;37603;55.614;37.326;2023-08-21T02:37:21;8.0;;;7.2;;
51515;SDS011;37603;55.614;37.326;2023-08-21T02:43:20;9.4;;;6.7;;
51515;SDS011;37603;55.614;37.326;2023-08-21T02:49:20;7.9;;;7.1;;
51515;SDS011;37603;55.614;37.326;2023-08-21T02:55:19;7.6;;;6.5;;
51515;SDS011;37603;55.614;37.326;2023-08-21T03:01:19;6.4;;;5.8;;
51515;SDS011;37603;55.614;37.326;2023-08-21T03:07:18;7.1;;;6.3;;
51515;SDS011;37603;55.614;37.326;2023-08-21T03:13:18;8.6;;;5.2;;
51515;SDS011;37603;55.614;37.326;2023-08-21T03:19:17;8.5;;;5.9;;
51515;SDS011;37603;55.614;37.326;2023-08-21T03:25:17;7.5;;;6.6;;
51515;SDS011;37603;55.614;37.326;2023-08-21T03:31:16;9.8;;;7.5;;
51515;SDS011;37603;55.614;37.326;2023-08-21T03:37:15;8.5;;;5.9;;
51515;SDS011;37603;55.614;37.326;2023-08-21T03:43:15;6.6;;;5.2;;
51515;SDS011;37603;55.614;37.326;2023-08-21T03:49:14;7.5;;;5.6;;
51515;SDS011;37603;55.614;37.326;2023-08-21T03:55:14;7.4;;;5.6;;
51515;SDS011;37603;55.614;37.326;2023-08-21T04:01:13;7.3;;;6.1;;
51515;SDS011;37603;55.614;37.326;2023-08-21T04:07:13;9.6;;;5.4;;
51515;SDS011;37603;55.614;37.326;2023-08-21T04:13:12;7.0;;;4.4;;
51515;SDS011;37603;55.614;37.326;2023-08-21T04:19:12;9.3;;;4.4;;
51515;SDS011;37603;55.614;37.326;2023-08-21T04:25:11;6.7;;;3.6;;
51515;SDS011;37603;55.614;37.326;2023-08-21T04:31:11;5.2;;;3.0;;
51515;SDS011;37603;55.614;37.326;2023-08-21T04:37:10;3.2;;;2.4;;
51515;SDS011;37603;55.614;37.326;2023-08-21T04:43:10;4.2;;;2.1;;
51515;SDS011;37603;55.614;37.326;2023-08-21T04:49:09;3.9;;;2.1;;
51515;SDS011;37603;55.614;37.326;2023-08-21T04:55:09;3.4;;;2.2;;
51515;SDS011;37603;55.614;37.326;2023-08-21T05:01:09;3.2;;;2.0;;
51515;SDS011;37603;55.614;37.326;2023-08-21T05:07:08;2.7;;;2.0;;
51515;SDS011;37603;55.614;37.326;2023-08-21T05:13:08;3.2;;;2.5;;
51515;SDS011;37603;55.614;37.326;2023-08-21T05:19:07;2.1;;;1.9;;
51515;SDS011;37603;55.614;37.326;2023-08-21T05:25:07;3.2;;;1.9;;
51515;SDS011;37603;55.614;37.326;2023-08-21T05:31:07;3.4;;;1.9;;
51515;SDS011;37603;55.614;37.326;2023-08-21T05:37:06;4.5;;;2.1;;
51515;SDS011;37603;55.614;37.326;2023-08-21T05:43:06;3.2;;;2.1;;
51515;SDS011;37603;55.614;37.326;2023-08-21T05:49:05;2.6;;;1.8;;
51515;SDS011;37603;55.614;37.326;2023-08-21T05:55:05;3.9;;;1.9;;
51515;SDS011;37603;55.614;37.326;2023-08-21T06:01:05;3.6;;;1.6;;
51515;SDS011;37603;55.614;37.326;2023-08-21T06:07:05;3.5;;;1.7;;
51515;SDS011;37603;55.614;37.326;2023-08-21T06:13:04;5.3;;;1.7;;
51515;SDS011;37603;55.614;37.326;2023-08-21T06:19:04;3.4;;;1.9;;
51515;SDS011;37603;55.614;37.326;2023-08-21T06:25:04;2.3;;;1.5;;
51515;SDS011;37603;55.614;37.326;2023-08-21T06:31:04;2.2;;;1.5;;
51515;SDS011;37603;55.614;37.326;2023-08-21T06:37:04;4.4;;;1.4;;
51515;SDS011;37603;55.614;37.326;2023-08-21T06:43:04;4.5;;;1.7;;
51515;SDS011;37603;55.614;37.326;2023-08-21T06:49:03;3.3;;;1.4;;
51515;SDS011;37603;55.614;37.326;2023-08-21T06:55:06;1.8;;;1.4;;
51515;SDS011;37603;55.614;37.326;2023-08-21T07:01:03;2.5;;;1.4;;
51515;SDS011;37603;55.614;37.326;2023-08-21T07:07:03;1.9;;;1.4;;
51515;SDS011;37603;55.614;37.326;2023-08-21T07:13:03;3.6;;;1.6;;
51515;SDS011;37603;55.614;37.326;2023-08-21T07:19:03;2.8;;;1.4;;
51515;SDS011;37603;55.614;37.326;2023-08-21T07:31:03;3.0;;;1.7;;
51515;SDS011;37603;55.614;37.326;2023-08-21T07:37:02;2.7;;;1.6;;
51515;SDS011;37603;55.614;37.326;2023-08-21T07:49:02;2.6;;;1.9;;
51515;SDS011;37603;55.614;37.326;2023-08-21T07:55:02;2.5;;;1.5;;
51515;SDS011;37603;55.614;37.326;2023-08-21T08:01:02;2.8;;;1.5;;
51515;SDS011;37603;55.614;37.326;2023-08-21T08:07:02;4.1;;;1.6;;
51515;SDS011;37603;55.614;37.326;2023-08-21T08:13:02;2.3;;;1.5;;
51515;SDS011;37603;55.614;37.326;2023-08-21T08:19:02;1.7;;;1.5;;
51515;SDS011;37603;55.614;37.326;2023-08-21T08:25:02;3.5;;;1.7;;
51515;SDS011;37603;55.614;37.326;2023-08-21T08:31:02;3.0;;;1.7;;
51515;SDS011;37603;55.614;37.326;2023-08-21T08:37:02;2.6;;;1.7;;
51515;SDS011;37603;55.614;37.326;2023-08-21T08:43:02;2.5;;;1.7;;
51515;SDS011;37603;55.614;37.326;2023-08-21T08:49:01;3.9;;;1.8;;
51515;SDS011;37603;55.614;37.326;2023-08-21T08:55:02;4.3;;;2.0;;
51515;SDS011;37603;55.614;37.326;2023-08-21T09:01:02;4.2;;;2.1;;
51515;SDS011;37603;55.614;37.326;2023-08-21T09:07:09;4.8;;;2.3;;
51515;SDS011;37603;55.614;37.326;2023-08-21T09:13:01;4.7;;;2.1;;
51515;SDS011;37603;55.614;37.326;2023-08-21T09:19:01;2.6;;;1.9;;
51515;SDS011;37603;55.614;37.326;2023-08-21T09:25:01;4.6;;;2.5;;
51515;SDS011;37603;55.614;37.326;2023-08-21T09:43:01;2.6;;;1.6;;
51515;SDS011;37603;55.614;37.326;2023-08-21T09:55:00;3.9;;;2.0;;
51515;SDS011;37603;55.614;37.326;2023-08-21T10:01:00;6.8;;;2.0;;
51515;SDS011;37603;55.614;37.326;2023-08-21T10:07:00;6.0;;;2.0;;
51515;SDS011;37603;55.614;37.326;2023-08-21T10:13:00;5.1;;;2.1;;
51515;SDS011;37603;55.614;37.326;2023-08-21T10:19:02;3.4;;;1.8;;
51515;SDS011;37603;55.614;37.326;2023-08-21T10:24:59;4.5;;;1.9;;
51515;SDS011;37603;55.614;37.326;2023-08-21T10:37:05;6.1;;;3.3;;
51515;SDS011;37603;55.614;37.326;2023-08-21T10:42:59;6.9;;;2.6;;
51515;SDS011;37603;55.614;37.326;2023-08-21T10:48:59;3.0;;;1.8;;
51515;SDS011;37603;55.614;37.326;2023-08-21T10:55:00;3.2;;;2.1;;
51515;SDS011;37603;55.614;37.326;2023-08-21T11:00:59;3.1;;;1.8;;
51515;SDS011;37603;55.614;37.326;2023-08-21T11:06:59;2.8;;;1.7;;
51515;SDS011;37603;55.614;37.326;2023-08-21T11:12:58;5.9;;;2.2;;
51515;SDS011;37603;55.614;37.326;2023-08-21T11:19:02;3.3;;;1.8;;
51515;SDS011;37603;55.614;37.326;2023-08-21T11:24:58;4.5;;;2.0;;
51515;SDS011;37603;55.614;37.326;2023-08-21T11:30:58;4.3;;;1.9;;
51515;SDS011;37603;55.614;37.326;2023-08-21T11:36:58;3.2;;;1.8;;
51515;SDS011;37603;55.614;37.326;2023-08-21T11:42:59;3.8;;;2.2;;
51515;SDS011;37603;55.614;37.326;2023-08-21T11:48:58;3.9;;;2.2;;
51515;SDS011;37603;55.614;37.326;2023-08-21T11:55:00;3.5;;;2.1;;
51515;SDS011;37603;55.614;37.326;2023-08-21T12:01:05;4.9;;;2.2;;
51515;SDS011;37603;55.614;37.326;2023-08-21T12:06:57;3.5;;;2.0;;
51515;SDS011;37603;55.614;37.326;2023-08-21T12:12:57;3.7;;;2.3;;
51515;SDS011;37603;55.614;37.326;2023-08-21T12:18:57;4.4;;;2.1;;
51515;SDS011;37603;55.614;37.326;2023-08-21T12:24:57;4.3;;;2.3;;
51515;SDS011;37603;55.614;37.326;2023-08-21T12:30:57;4.9;;;2.3;;
51515;SDS011;37603;55.614;37.326;2023-08-21T12:36:57;4.1;;;2.1;;
51515;SDS011;37603;55.614;37.326;2023-08-21T12:42:57;4.5;;;2.1;;
51515;SDS011;37603;55.614;37.326;2023-08-21T12:49:00;5.1;;;2.2;;
51515;SDS011;37603;55.614;37.326;2023-08-21T12:54:57;2.8;;;1.9;;
51515;SDS011;37603;55.614;37.326;2023-08-21T13:00:56;3.4;;;2.0;;
51515;SDS011;37603;55.614;37.326;2023-08-21T13:06:56;2.6;;;1.9;;
51515;SDS011;37603;55.614;37.326;2023-08-21T13:12:56;3.5;;;2.3;;
51515;SDS011;37603;55.614;37.326;2023-08-21T13:18:56;3.9;;;2.2;;
51515;SDS011;37603;55.614;37.326;2023-08-21T13:24:56;3.4;;;2.1;;
51515;SDS011;37603;55.614;37.326;2023-08-21T13:30:56;2.6;;;1.7;;
51515;SDS011;37603;55.614;37.326;2023-08-21T13:36:56;3.2;;;2.0;;
51515;SDS011;37603;55.614;37.326;2023-08-21T13:42:56;4.0;;;2.0;;
51515;SDS011;37603;55.614;37.326;2023-08-21T13:48:55;8.0;;;2.0;;
51515;SDS011;37603;55.614;37.326;2023-08-21T13:54:55;4.2;;;2.1;;
51515;SDS011;37603;55.614;37.326;2023-08-21T14:00:55;3.9;;;1.9;;
51515;SDS011;37603;55.614;37.326;2023-08-21T14:06:55;4.7;;;1.7;;
51515;SDS011;37603;55.614;37.326;2023-08-21T14:12:55;4.3;;;2.0;;
51515;SDS011;37603;55.614;37.326;2023-08-21T14:18:55;3.8;;;2.0;;
51515;SDS011;37603;55.614;37.326;2023-08-21T14:24:54;4.0;;;2.2;;
51515;SDS011;37603;55.614;37.326;2023-08-21T14:30:54;3.7;;;2.1;;
51515;SDS011;37603;55.614;37.326;2023-08-21T14:36:54;4.0;;;1.9;;
51515;SDS011;37603;55.614;37.326;2023-08-21T14:42:54;4.1;;;2.1;;
51515;SDS011;37603;55.614;37.326;2023-08-21T14:48:54;3.2;;;1.9;;
51515;SDS011;37603;55.614;37.326;2023-08-21T14:54:54;2.7;;;1.8;;
51515;SDS011;37603;55.614;37.326;2023-08-21T15:00:54;3.1;;;1.8;;
51515;SDS011;37603;55.614;37.326;2023-08-21T15:06:55;4.2;;;2.0;;
51515;SDS011;37603;55.614;37.326;2023-08-21T15:12:53;2.7;;;2.2;;
51515;SDS011;37603;55.614;37.326;2023-08-21T15:18:53;4.2;;;2.1;;
51515;SDS011;37603;55.614;37.326;2023-08-21T15:24:53;4.1;;;2.3;;
51515;SDS011;37603;55.614;37.326;2023-08-21T15:30:53;4.8;;;2.6;;
51515;SDS011;37603;55.614;37.326;2023-08-21T15:36:52;15.4;;;3.8;;
51515;SDS011;37603;55.614;37.326;2023-08-21T15:42:52;5.9;;;2.1;;
51515;SDS011;37603;55.614;37.326;2023-08-21T15:48:52;5.2;;;2.3;;
51515;SDS011;37603;55.614;37.326;2023-08-21T15:54:52;3.5;;;2.2;;
51515;SDS011;37603;55.614;37.326;2023-08-21T16:00:52;3.8;;;1.9;;
51515;SDS011;37603;55.614;37.326;2023-08-21T16:06:52;4.3;;;1.9;;
51515;SDS011;37603;55.614;37.326;2023-08-21T16:12:51;6.9;;;2.2;;
51515;SDS011;37603;55.614;37.326;2023-08-21T16:18:51;6.4;;;2.4;;
51515;SDS011;37603;55.614;37.326;2023-08-21T16:24:51;5.7;;;2.6;;
51515;SDS011;37603;55.614;37.326;2023-08-21T16:30:50;5.2;;;2.3;;
51515;SDS011;37603;55.614;37.326;2023-08-21T16:36:50;6.6;;;2.6;;
51515;SDS011;37603;55.614;37.326;2023-08-21T16:42:50;5.9;;;3.3;;
51515;SDS011;37603;55.614;37.326;2023-08-21T16:48:49;5.5;;;3.0;;
51515;SDS011;37603;55.614;37.326;2023-08-21T16:54:49;6.1;;;3.1;;
51515;SDS011;37603;55.614;37.326;2023-08-21T17:00:48;6.8;;;3.0;;
51515;SDS011;37603;55.614;37.326;2023-08-21T17:06:48;5.2;;;2.8;;
51515;SDS011;37603;55.614;37.326;2023-08-21T17:12:48;5.0;;;2.6;;
51515;SDS011;37603;55.614;37.326;2023-08-21T17:18:47;5.8;;;3.0;;
51515;SDS011;37603;55.614;37.326;2023-08-21T17:24:49;8.1;;;3.3;;
51515;SDS011;37603;55.614;37.326;2023-08-21T17:30:46;4.8;;;2.5;;
51515;SDS011;37603;55.614;37.326;2023-08-21T17:36:46;6.7;;;2.8;;
51515;SDS011;37603;55.614;37.326;2023-08-21T17:42:45;5.1;;;2.9;;
51515;SDS011;37603;55.614;37.326;2023-08-21T17:48:45;5.7;;;2.9;;
51515;SDS011;37603;55.614;37.326;2023-08-21T17:54:44;6.4;;;2.9;;
51515;SDS011;37603;55.614;37.326;2023-08-21T18:00:44;8.7;;;3.4;;
51515;SDS011;37603;55.614;37.326;2023-08-21T18:06:44;6.0;;;2.9;;
51515;SDS011;37603;55.614;37.326;2023-08-21T18:12:43;6.8;;;3.1;;
51515;SDS011;37603;55.614;37.326;2023-08-21T18:18:43;5.4;;;3.4;;
51515;SDS011;37603;55.614;37.326;2023-08-21T18:24:42;6.2;;;3.1;;
51515;SDS011;37603;55.614;37.326;2023-08-21T18:30:42;7.7;;;3.3;;
51515;SDS011;37603;55.614;37.326;2023-08-21T18:36:41;9.1;;;3.5;;
51515;SDS011;37603;55.614;37.326;2023-08-21T18:42:41;10.2;;;3.5;;
51515;SDS011;37603;55.614;37.326;2023-08-21T18:48:41;8.7;;;3.7;;
51515;SDS011;37603;55.614;37.326;2023-08-21T19:00:39;9.6;;;3.7;;
51515;SDS011;37603;55.614;37.326;2023-08-21T19:06:39;7.0;;;4.0;;
51515;SDS011;37603;55.614;37.326;2023-08-21T19:12:38;7.5;;;3.7;;
51515;SDS011;37603;55.614;37.326;2023-08-21T19:18:38;9.2;;;3.9;;
51515;SDS011;37603;55.614;37.326;2023-08-21T19:24:37;8.7;;;4.0;;
51515;SDS011;37603;55.614;37.326;2023-08-21T19:30:37;9.1;;;4.6;;
51515;SDS011;37603;55.614;37.326;2023-08-21T19:36:36;10.4;;;4.3;;
51515;SDS011;37603;55.614;37.326;2023-08-21T19:42:35;6.5;;;4.3;;
51515;SDS011;37603;55.614;37.326;2023-08-21T19:48:35;6.8;;;4.1;;
51515;SDS011;37603;55.614;37.326;2023-08-21T19:54:34;11.9;;;5.0;;
51515;SDS011;37603;55.614;37.326;2023-08-21T20:00:34;7.6;;;4.3;;
51515;SDS011;37603;55.614;37.326;2023-08-21T20:06:33;11.0;;;4.5;;
51515;SDS011;37603;55.614;37.326;2023-08-21T20:12:33;8.8;;;4.9;;
51515;SDS011;37603;55.614;37.326;2023-08-21T20:18:32;11.4;;;4.8;;
51515;SDS011;37603;55.614;37.326;2023-08-21T20:24:32;9.4;;;4.8;;
51515;SDS011;37603;55.614;37.326;2023-08-21T20:30:32;11.6;;;4.7;;
51515;SDS011;37603;55.614;37.326;2023-08-21T20:36:31;13.7;;;5.2;;
51515;SDS011;37603;55.614;37.326;2023-08-21T20:42:30;9.6;;;5.1;;
51515;SDS011;37603;55.614;37.326;2023-08-21T20:48:30;11.9;;;5.1;;
51515;SDS011;37603;55.614;37.326;2023-08-21T20:54:29;10.3;;;5.1;;
51515;SDS011;37603;55.614;37.326;2023-08-21T21:00:29;10.7;;;4.9;;
51515;SDS011;37603;55.614;37.326;2023-08-21T21:06:28;11.7;;;5.1;;
51515;SDS011;37603;55.614;37.326;2023-08-21T21:12:27;8.7;;;5.0;;
51515;SDS011;37603;55.614;37.326;2023-08-21T21:18:27;9.6;;;4.7;;
51515;SDS011;37603;55.614;37.326;2023-08-21T21:24:26;10.4;;;4.7;;
51515;SDS011;37603;55.614;37.326;2023-08-21T21:30:26;8.4;;;4.5;;
51515;SDS011;37603;55.614;37.326;2023-08-21T21:36:25;9.5;;;4.0;;
51515;SDS011;37603;55.614;37.326;2023-08-21T21:42:25;8.7;;;4.2;;
51515;SDS011;37603;55.614;37.326;2023-08-21T21:48:24;11.5;;;4.3;;
51515;SDS011;37603;55.614;37.326;2023-08-21T21:54:24;9.4;;;4.8;;
51515;SDS011;37603;55.614;37.326;2023-08-21T22:00:23;10.0;;;4.7;;
51515;SDS011;37603;55.614;37.326;2023-08-21T22:06:23;8.1;;;4.3;;
51515;SDS011;37603;55.614;37.326;2023-08-21T22:12:22;9.8;;;4.5;;
51515;SDS011;37603;55.614;37.326;2023-08-21T22:18:21;10.8;;;4.8;;
51515;SDS011;37603;55.614;37.326;2023-08-21T22:24:21;10.1;;;5.1;;
51515;SDS011;37603;55.614;37.326;2023-08-21T22:30:20;9.9;;;5.4;;
51515;SDS011;37603;55.614;37.326;2023-08-21T22:36:20;13.6;;;5.7;;
51515;SDS011;37603;55.614;37.326;2023-08-21T22:42:19;11.3;;;6.2;;
51515;SDS011;37603;55.614;37.326;2023-08-21T22:54:18;10.9;;;5.6;;
51515;SDS011;37603;55.614;37.326;2023-08-21T23:00:17;10.0;;;5.7;;
51515;SDS011;37603;55.614;37.326;2023-08-21T23:06:17;10.9;;;5.9;;
51515;SDS011;37603;55.614;37.326;2023-08-21T23:12:16;12.0;;;6.3;;
51515;SDS011;37603;55.614;37.326;2023-08-21T23:18:16;13.1;;;5.6;;
51515;SDS011;37603;55.614;37.326;2023-08-21T23:24:15;12.5;;;5.7;;
51515;SDS011;37603;55.614;37.326;2023-08-21T23:30:14;9.9;;;4.9;;
51515;SDS011;37603;55.614;37.326;2023-08-21T23:36:14;12.8;;;6.0;;
51515;SDS011;37603;55.614;37.326;2023-08-21T23:42:13;13.3;;;5.8;;
51515;SDS011;37603;55.614;37.326;2023-08-21T23:48:12;12.6;;;6.1;;
51515;SDS011;37603;55.614;37.326;2023-08-21T23:54:12;12.3;;;5.7;;
